Time;durP1;ratioP1;P1;durP2;ratioP2;P2;SDS_P1;SDS_P2;PMS_P1;PMS_P2;Temp;Humidity;BMP_temperature;BMP_pressure;BME280_temperature;BME280_humidity;BME280_pressure;Samples;Min_cycle;Max_cycle;Signal;HPM_P1;HPM_P2
2021/03/22 00:00:17;;;;;;;10.40;9.48;;;6.90;99.90;;;;;;5014001;28;20488;-65
2021/03/22 00:02:42;;;;;;;13.48;9.95;;;6.80;99.90;;;;;;5020455;28;20423;-65
2021/03/22 00:05:09;;;;;;;10.25;9.18;;;6.90;99.90;;;;;;5013323;28;20089;-65
2021/03/22 00:07:34;;;;;;;10.05;9.20;;;6.90;99.90;;;;;;5018307;28;20402;-65
2021/03/22 00:10:00;;;;;;;11.68;10.50;;;6.90;99.90;;;;;;5014675;28;20029;-65
2021/03/22 00:12:26;;;;;;;11.52;10.32;;;6.80;99.90;;;;;;5017973;28;20025;-65
2021/03/22 00:14:51;;;;;;;12.45;11.15;;;6.70;99.90;;;;;;5015553;28;20103;-66
2021/03/22 00:17:17;;;;;;;13.07;11.35;;;6.80;99.90;;;;;;5016727;28;20115;-65
2021/03/22 00:19:43;;;;;;;11.73;10.52;;;6.80;99.90;;;;;;5016787;28;20037;-65
2021/03/22 00:22:08;;;;;;;11.25;10.25;;;6.60;99.90;;;;;;5014608;28;20029;-65
2021/03/22 00:24:34;;;;;;;12.52;11.23;;;6.60;99.90;;;;;;5017817;28;20048;-65
2021/03/22 00:27:00;;;;;;;11.93;10.13;;;6.70;99.90;;;;;;5014003;28;20565;-65
2021/03/22 00:29:25;;;;;;;15.15;10.40;;;6.50;99.90;;;;;;5019185;28;20030;-65
2021/03/22 00:31:51;;;;;;;10.77;9.82;;;6.50;99.90;;;;;;5013151;28;20130;-65
2021/03/22 00:34:17;;;;;;;11.55;10.13;;;6.50;99.90;;;;;;5019564;28;20022;-65
2021/03/22 00:36:42;;;;;;;15.02;10.57;;;6.40;99.90;;;;;;5012362;28;20441;-65
2021/03/22 00:39:08;;;;;;;11.32;10.18;;;6.40;99.90;;;;;;5019510;28;20554;-65
2021/03/22 00:41:33;;;;;;;11.77;10.65;;;6.40;99.90;;;;;;5012765;28;20615;-65
2021/03/22 00:43:59;;;;;;;11.65;10.45;;;6.40;99.90;;;;;;5019352;28;20061;-65
2021/03/22 00:46:25;;;;;;;11.30;10.30;;;6.30;99.90;;;;;;5012907;28;20498;-65
2021/03/22 00:48:50;;;;;;;13.73;10.80;;;6.30;99.90;;;;;;5019275;28;20513;-65
2021/03/22 00:51:16;;;;;;;11.95;10.80;;;6.40;99.90;;;;;;5011130;28;20041;-67
2021/03/22 00:53:42;;;;;;;13.88;10.30;;;6.30;99.90;;;;;;5020291;28;20030;-65
2021/03/22 00:56:07;;;;;;;13.00;11.25;;;6.30;99.90;;;;;;5010783;28;20030;-65
2021/03/22 00:58:33;;;;;;;11.45;10.45;;;6.20;99.90;;;;;;5021441;28;20026;-64
2021/03/22 01:01:00;;;;;;;13.60;11.25;;;6.10;99.90;;;;;;5024411;28;20028;-64
2021/03/22 01:03:29;;;;;;;11.95;10.77;;;6.20;99.90;;;;;;5021366;28;20026;-64
2021/03/22 01:05:56;;;;;;;12.02;10.93;;;6.20;99.90;;;;;;5008512;28;20128;-65
2021/03/22 01:08:26;;;;;;;11.90;10.55;;;6.20;99.90;;;;;;5017836;28;20025;-65
2021/03/22 01:11:04;;;;;;;13.02;11.73;;;6.20;99.90;;;;;;5029301;28;20536;-64
2021/03/22 01:13:34;;;;;;;12.75;11.45;;;6.20;99.90;;;;;;5020032;28;20037;-65
2021/03/22 01:16:02;;;;;;;14.02;11.45;;;6.00;99.90;;;;;;5009309;28;20022;-65
2021/03/22 01:18:36;;;;;;;14.98;11.73;;;6.10;99.90;;;;;;5020185;28;20105;-65
2021/03/22 01:21:36;;;;;;;12.88;11.52;;;6.10;99.90;;;;;;5008943;28;20072;-65
2021/03/22 01:24:03;;;;;;;12.88;11.57;;;6.20;99.90;;;;;;5008451;28;20045;-65
2021/03/22 01:26:32;;;;;;;14.18;11.32;;;6.20;99.90;;;;;;5011690;28;20032;-65
2021/03/22 01:28:59;;;;;;;16.65;12.45;;;6.10;99.90;;;;;;5018392;28;20391;-65
2021/03/22 01:31:26;;;;;;;14.13;12.00;;;6.10;99.90;;;;;;5011205;28;20022;-66
2021/03/22 01:33:52;;;;;;;13.85;11.95;;;6.00;99.90;;;;;;5017743;28;20041;-65
2021/03/22 01:36:21;;;;;;;15.50;12.55;;;6.00;99.90;;;;;;5009843;28;20009;-66
2021/03/22 01:38:47;;;;;;;15.38;12.75;;;6.00;99.90;;;;;;5018180;28;20522;-67
2021/03/22 01:41:13;;;;;;;14.30;12.75;;;6.00;99.90;;;;;;5009898;28;20030;-65
2021/03/22 01:44:00;;;;;;;15.52;13.32;;;6.10;99.90;;;;;;5019056;28;20038;-65
2021/03/22 01:46:28;;;;;;;16.77;13.95;;;5.90;99.90;;;;;;5011316;28;20390;-65
2021/03/22 01:48:54;;;;;;;18.00;12.60;;;6.00;99.90;;;;;;5017781;28;20032;-65
2021/03/22 01:51:20;;;;;;;17.55;13.52;;;6.00;99.90;;;;;;5009846;28;20014;-65
2021/03/22 01:53:47;;;;;;;16.85;13.43;;;5.90;99.90;;;;;;5016736;28;20075;-66
2021/03/22 01:56:38;;;;;;;17.60;13.65;;;5.90;99.90;;;;;;5009561;28;20052;-65
2021/03/22 01:59:03;;;;;;;18.88;13.25;;;5.80;99.90;;;;;;5017522;28;20026;-65
2021/03/22 02:01:29;;;;;;;16.13;12.90;;;5.90;99.90;;;;;;5011993;28;20616;-65
2021/03/22 02:03:56;;;;;;;16.95;13.73;;;5.80;99.90;;;;;;5023147;28;20180;-65
2021/03/22 02:06:22;;;;;;;19.48;14.38;;;5.70;99.90;;;;;;4987288;28;670820;-65
2021/03/22 02:08:49;;;;;;;19.75;14.50;;;5.80;99.90;;;;;;5018552;28;20025;-65
2021/03/22 02:11:27;;;;;;;17.80;14.27;;;5.80;99.90;;;;;;5010314;28;20037;-65
2021/03/22 02:13:56;;;;;;;18.73;14.85;;;5.80;99.90;;;;;;5018202;28;20034;-65
2021/03/22 02:16:38;;;;;;;17.73;14.07;;;5.70;99.90;;;;;;5011198;28;20979;-65
2021/03/22 02:19:55;;;;;;;16.05;14.00;;;5.90;99.90;;;;;;5018410;28;20065;-66
2021/03/22 02:22:35;;;;;;;17.27;14.68;;;5.80;99.90;;;;;;5009302;28;20128;-64
2021/03/22 02:25:38;;;;;;;23.05;14.68;;;5.80;99.90;;;;;;5012879;28;20030;-66
2021/03/22 02:28:32;;;;;;;16.90;14.05;;;5.80;99.90;;;;;;5020661;28;20061;-65
2021/03/22 02:31:37;;;;;;;17.83;15.20;;;5.70;99.90;;;;;;5007933;28;20037;-65
2021/03/22 02:34:27;;;;;;;17.35;14.40;;;5.70;99.90;;;;;;5007868;28;20046;-65
2021/03/22 02:37:18;;;;;;;18.20;14.75;;;5.80;99.90;;;;;;5010809;28;20014;-65
2021/03/22 02:39:57;;;;;;;21.25;14.43;;;5.50;99.90;;;;;;5022711;28;20544;-65
2021/03/22 02:42:24;;;;;;;22.73;16.15;;;5.60;99.90;;;;;;5022925;28;20029;-65
2021/03/22 02:44:50;;;;;;;18.95;15.10;;;5.50;99.90;;;;;;5014223;28;20217;-65
2021/03/22 02:47:32;;;;;;;19.83;15.60;;;5.60;99.90;;;;;;5013920;28;20105;-65
2021/03/22 02:50:03;;;;;;;22.98;16.15;;;5.40;99.90;;;;;;5013209;28;20038;-65
2021/03/22 02:52:48;;;;;;;20.48;15.68;;;5.50;99.90;;;;;;5015038;28;20482;-65
2021/03/22 02:55:51;;;;;;;22.13;16.58;;;5.50;99.90;;;;;;5010966;28;20641;-66
2021/03/22 02:58:19;;;;;;;21.75;15.88;;;5.50;99.90;;;;;;5020110;28;20518;-66
2021/03/22 03:01:11;;;;;;;26.55;15.88;;;5.50;99.90;;;;;;5009075;28;20026;-65
2021/03/22 03:03:38;;;;;;;22.02;16.25;;;5.40;99.90;;;;;;5017989;28;20080;-66
2021/03/22 03:06:04;;;;;;;20.73;16.13;;;5.30;99.90;;;;;;5029770;28;20559;-65
2021/03/22 03:08:38;;;;;;;23.63;15.93;;;5.40;99.90;;;;;;5023433;28;20064;-65
2021/03/22 03:11:05;;;;;;;20.40;16.08;;;5.20;99.90;;;;;;5012772;28;20022;-66
2021/03/22 03:13:32;;;;;;;22.10;16.40;;;5.30;99.90;;;;;;5023343;28;20030;-65
2021/03/22 03:15:58;;;;;;;19.58;16.38;;;5.20;99.90;;;;;;5012119;28;20026;-65
2021/03/22 03:18:24;;;;;;;24.13;17.05;;;5.20;99.90;;;;;;5023553;28;20030;-67
2021/03/22 03:20:50;;;;;;;22.98;16.70;;;5.20;99.90;;;;;;5011686;28;20080;-65
2021/03/22 03:23:16;;;;;;;21.13;16.63;;;5.20;99.90;;;;;;5037145;28;20391;-65
2021/03/22 03:25:42;;;;;;;25.15;17.02;;;5.20;99.90;;;;;;5011868;28;20557;-65
2021/03/22 03:28:08;;;;;;;21.75;17.38;;;5.30;99.90;;;;;;5023398;28;20029;-65
2021/03/22 03:30:36;;;;;;;22.23;16.98;;;5.30;99.90;;;;;;5012048;28;20116;-64
2021/03/22 03:33:07;;;;;;;20.92;16.75;;;5.30;99.90;;;;;;5022825;28;20491;-65
2021/03/22 03:35:35;;;;;;;22.77;17.77;;;5.20;99.90;;;;;;5011209;28;20040;-65
2021/03/22 03:38:01;;;;;;;20.45;17.75;;;5.20;99.90;;;;;;5022933;28;20009;-65
2021/03/22 03:40:34;;;;;;;23.92;16.42;;;5.10;99.90;;;;;;5011981;28;20038;-65
2021/03/22 03:43:00;;;;;;;28.15;17.90;;;5.20;99.90;;;;;;5022663;28;20450;-65
2021/03/22 03:45:28;;;;;;;22.25;16.83;;;5.10;99.90;;;;;;5011958;28;20373;-65
2021/03/22 03:47:54;;;;;;;22.08;16.90;;;5.00;99.90;;;;;;5021587;28;20060;-64
2021/03/22 03:50:26;;;;;;;25.30;17.10;;;5.20;99.90;;;;;;5012658;28;20640;-67
2021/03/22 03:52:52;;;;;;;23.63;17.58;;;5.10;99.90;;;;;;5016133;28;20018;-65
2021/03/22 03:55:20;;;;;;;24.77;17.80;;;5.00;99.90;;;;;;5029717;28;20029;-65
2021/03/22 03:57:49;;;;;;;22.13;16.77;;;5.00;99.90;;;;;;5025145;28;20030;-65
2021/03/22 04:00:22;;;;;;;26.55;18.13;;;5.00;99.90;;;;;;5013297;28;20556;-65
2021/03/22 04:02:49;;;;;;;22.55;17.70;;;4.90;99.90;;;;;;5020524;28;20017;-65
2021/03/22 04:05:14;;;;;;;23.10;17.65;;;5.00;99.90;;;;;;5013212;28;20054;-66
2021/03/22 04:07:40;;;;;;;26.08;17.33;;;4.90;99.90;;;;;;5018709;28;20026;-67
2021/03/22 04:10:06;;;;;;;23.05;17.45;;;4.90;99.90;;;;;;5014535;28;20030;-66
2021/03/22 04:12:33;;;;;;;22.83;17.98;;;5.00;99.90;;;;;;5017767;28;20032;-65
2021/03/22 04:14:59;;;;;;;25.85;17.35;;;4.90;99.90;;;;;;5015280;28;20609;-65
2021/03/22 04:17:25;;;;;;;27.63;19.20;;;4.80;99.90;;;;;;5016049;28;20020;-66
2021/03/22 04:19:50;;;;;;;26.33;19.42;;;4.80;99.90;;;;;;5016453;28;20034;-65
2021/03/22 04:22:16;;;;;;;24.77;18.58;;;4.80;99.90;;;;;;5014878;28;20037;-65
2021/03/22 04:24:42;;;;;;;26.60;18.42;;;4.80;99.90;;;;;;5017536;28;20111;-65
2021/03/22 04:27:08;;;;;;;26.73;19.25;;;4.90;99.90;;;;;;5014167;28;20113;-65
2021/03/22 04:29:34;;;;;;;27.30;18.40;;;4.80;99.90;;;;;;5018572;28;20037;-65
2021/03/22 04:31:59;;;;;;;24.60;18.25;;;4.90;99.90;;;;;;5013244;28;20034;-65
2021/03/22 04:34:25;;;;;;;24.17;18.15;;;4.80;99.90;;;;;;5019704;28;20158;-65
2021/03/22 04:36:50;;;;;;;26.58;19.00;;;4.90;99.90;;;;;;5012527;28;20060;-67
2021/03/22 04:39:16;;;;;;;28.15;19.02;;;4.90;99.90;;;;;;5019475;28;20576;-65
2021/03/22 04:41:42;;;;;;;28.40;18.95;;;4.90;99.90;;;;;;5013186;28;20033;-65
2021/03/22 04:44:08;;;;;;;28.23;19.08;;;4.80;99.90;;;;;;5019160;28;20076;-65
2021/03/22 04:46:34;;;;;;;26.20;18.48;;;4.90;99.90;;;;;;5012963;28;20092;-65
2021/03/22 04:49:00;;;;;;;31.23;19.70;;;4.90;99.90;;;;;;5019590;28;20427;-65
2021/03/22 04:51:27;;;;;;;28.92;19.92;;;4.90;99.90;;;;;;5011790;28;20030;-66
2021/03/22 04:53:53;;;;;;;29.48;20.17;;;4.80;99.90;;;;;;5019726;28;20510;-65
2021/03/22 04:56:20;;;;;;;26.92;19.02;;;4.80;99.90;;;;;;5011456;28;20069;-65
2021/03/22 04:58:46;;;;;;;29.77;19.73;;;4.80;99.90;;;;;;5020215;28;20018;-65
2021/03/22 05:01:11;;;;;;;33.38;20.52;;;4.70;99.90;;;;;;5010743;28;20076;-65
2021/03/22 05:03:37;;;;;;;33.28;20.65;;;4.60;99.90;;;;;;5021139;28;20045;-67
2021/03/22 05:06:04;;;;;;;31.45;20.55;;;4.70;99.90;;;;;;5009488;28;20143;-65
2021/03/22 05:08:30;;;;;;;29.63;21.25;;;4.60;99.90;;;;;;5021206;28;20022;-65
2021/03/22 05:10:59;;;;;;;29.23;19.73;;;4.60;99.90;;;;;;5010338;28;20076;-65
2021/03/22 05:13:24;;;;;;;35.17;22.17;;;4.60;99.90;;;;;;5021372;28;20776;-65
2021/03/22 05:15:51;;;;;;;31.55;20.85;;;4.50;99.90;;;;;;5008721;28;20034;-65
2021/03/22 05:18:18;;;;;;;32.15;20.83;;;4.50;99.90;;;;;;5021373;28;20026;-65
2021/03/22 05:20:48;;;;;;;35.70;22.05;;;4.70;99.90;;;;;;5009657;28;20521;-65
2021/03/22 05:23:18;;;;;;;30.23;20.88;;;4.70;99.90;;;;;;5021323;28;20045;-66
2021/03/22 05:25:44;;;;;;;33.08;21.08;;;4.50;99.90;;;;;;5009968;28;20088;-65
2021/03/22 05:28:11;;;;;;;34.30;22.20;;;4.50;99.90;;;;;;5020735;28;20436;-65
2021/03/22 05:30:38;;;;;;;29.80;20.50;;;4.60;99.90;;;;;;5009561;28;20033;-65
2021/03/22 05:33:10;;;;;;;31.73;20.80;;;4.50;99.90;;;;;;5020654;28;20102;-65
2021/03/22 05:35:36;;;;;;;32.38;20.48;;;4.50;99.90;;;;;;5009092;28;20030;-65
2021/03/22 05:38:03;;;;;;;30.90;21.98;;;4.60;99.90;;;;;;5020191;28;20025;-65
2021/03/22 05:40:40;;;;;;;29.08;20.70;;;4.70;99.90;;;;;;5010152;28;20071;-66
2021/03/22 05:43:39;;;;;;;31.90;20.65;;;4.60;99.90;;;;;;5020951;28;20714;-65
2021/03/22 05:46:08;;;;;;;33.05;20.75;;;4.50;99.90;;;;;;5009585;28;20033;-66
2021/03/22 05:49:04;;;;;;;30.77;21.65;;;4.60;99.90;;;;;;5020286;28;20047;-65
2021/03/22 05:51:41;;;;;;;35.20;21.27;;;4.50;99.90;;;;;;5011352;28;20564;-65
2021/03/22 05:54:16;;;;;;;31.90;21.13;;;4.60;99.90;;;;;;5018557;28;20057;-65
2021/03/22 05:57:00;;;;;;;30.05;21.20;;;4.60;99.90;;;;;;5011916;28;20025;-65
2021/03/22 05:59:45;;;;;;;33.63;21.58;;;4.60;99.90;;;;;;5018449;28;20111;-65
2021/03/22 06:02:21;;;;;;;32.10;22.45;;;4.60;99.90;;;;;;5013129;28;20053;-65
2021/03/22 06:04:53;;;;;;;31.85;22.25;;;4.60;99.90;;;;;;5015440;28;20037;-65
2021/03/22 06:07:23;;;;;;;36.05;22.77;;;4.70;99.90;;;;;;5013377;28;20419;-65
2021/03/22 06:10:01;;;;;;;37.22;22.98;;;4.60;99.90;;;;;;5015275;28;20025;-66
2021/03/22 06:12:36;;;;;;;35.25;23.38;;;4.60;99.90;;;;;;5015251;28;20033;-65
2021/03/22 06:15:29;;;;;;;32.05;22.23;;;4.60;99.90;;;;;;5013398;28;20022;-65
2021/03/22 06:18:12;;;;;;;37.28;23.33;;;4.70;99.90;;;;;;5018336;28;20040;-65
2021/03/22 06:20:40;;;;;;;38.95;23.73;;;4.60;99.90;;;;;;5008569;28;20672;-64
2021/03/22 06:23:17;;;;;;;32.60;22.02;;;4.90;99.90;;;;;;5020575;28;20100;-64
2021/03/22 06:25:43;;;;;;;32.42;21.85;;;5.60;99.90;;;;;;5009276;28;20065;-64
2021/03/22 06:28:15;;;;;;;37.85;23.48;;;5.20;99.90;;;;;;5020320;28;20030;-65
2021/03/22 06:31:04;;;;;;;36.58;23.48;;;5.00;99.90;;;;;;5009240;28;20092;-64
2021/03/22 06:33:44;;;;;;;36.63;23.83;;;4.90;99.90;;;;;;5017625;28;20029;-64
2021/03/22 06:36:13;;;;;;;43.03;23.88;;;4.80;99.90;;;;;;5026616;28;20032;-64
2021/03/22 06:38:45;;;;;;;40.58;25.77;;;4.80;99.90;;;;;;5028186;28;20505;-64
2021/03/22 06:41:41;;;;;;;36.53;23.35;;;4.90;99.90;;;;;;5029980;28;20045;-64
2021/03/22 06:44:14;;;;;;;38.63;24.58;;;5.00;99.90;;;;;;5030496;28;20088;-63
2021/03/22 06:47:18;;;;;;;37.53;25.05;;;4.90;99.90;;;;;;5027651;28;20124;-64
2021/03/22 06:49:53;;;;;;;40.28;24.95;;;4.80;99.90;;;;;;5030166;28;20034;-67
2021/03/22 06:52:25;;;;;;;37.85;26.17;;;5.00;99.90;;;;;;5031894;28;20703;-63
2021/03/22 06:54:52;;;;;;;37.53;25.02;;;5.10;99.90;;;;;;5029592;28;20079;-64
2021/03/22 06:57:27;;;;;;;38.17;24.98;;;5.00;99.90;;;;;;5029873;28;20029;-64
2021/03/22 07:00:22;;;;;;;45.63;25.20;;;5.30;99.90;;;;;;5029859;28;20040;-64
2021/03/22 07:03:23;;;;;;;36.72;25.27;;;5.30;99.90;;;;;;5027498;28;20024;-64
2021/03/22 07:05:49;;;;;;;43.38;24.80;;;5.30;99.90;;;;;;5023593;28;20046;-65
2021/03/22 07:08:19;;;;;;;37.00;25.20;;;5.40;99.90;;;;;;5030296;28;20029;-64
2021/03/22 07:10:54;;;;;;;39.40;24.50;;;5.50;99.90;;;;;;5031349;28;20033;-67
2021/03/22 07:13:31;;;;;;;36.45;24.10;;;5.40;99.90;;;;;;5029394;28;20041;-65
2021/03/22 07:16:15;;;;;;;32.00;23.95;;;5.70;99.90;;;;;;5031806;28;20099;-66
2021/03/22 07:18:41;;;;;;;42.17;25.55;;;5.80;99.90;;;;;;5023199;28;20033;-66
2021/03/22 07:21:19;;;;;;;43.33;25.48;;;5.70;99.90;;;;;;5011867;28;20113;-66
2021/03/22 07:23:45;;;;;;;38.50;25.92;;;5.70;99.90;;;;;;5021772;28;20104;-66
2021/03/22 07:26:23;;;;;;;38.95;26.20;;;5.70;99.90;;;;;;5030603;28;20409;-66
2021/03/22 07:29:01;;;;;;;41.25;25.30;;;5.90;99.90;;;;;;5022189;28;20121;-66
2021/03/22 07:31:54;;;;;;;41.33;25.88;;;5.80;99.90;;;;;;5029820;28;20043;-65
2021/03/22 07:34:38;;;;;;;38.55;26.98;;;6.00;99.90;;;;;;5020452;28;20038;-66
2021/03/22 07:37:16;;;;;;;41.13;26.38;;;6.00;99.90;;;;;;5013651;28;20103;-66
2021/03/22 07:39:41;;;;;;;41.33;25.60;;;6.10;99.90;;;;;;5019732;28;20506;-65
2021/03/22 07:42:13;;;;;;;44.28;27.42;;;6.20;99.90;;;;;;5014874;28;20033;-66
2021/03/22 07:45:07;;;;;;;44.78;27.63;;;6.20;99.90;;;;;;5019093;28;20116;-66
2021/03/22 07:48:03;;;;;;;39.22;26.13;;;6.40;99.90;;;;;;5017937;28;20029;-66
2021/03/22 07:50:54;;;;;;;38.00;26.65;;;6.40;99.90;;;;;;5011508;28;20076;-66
2021/03/22 07:53:48;;;;;;;38.72;24.77;;;6.40;99.90;;;;;;5024937;28;20036;-66
2021/03/22 07:56:23;;;;;;;43.20;26.65;;;6.30;99.90;;;;;;5014661;28;20025;-66
2021/03/22 07:58:56;;;;;;;41.10;27.48;;;6.50;99.90;;;;;;5028394;28;20108;-66
2021/03/22 08:01:58;;;;;;;41.38;26.35;;;6.60;99.90;;;;;;5029308;28;20028;-66
2021/03/22 08:04:53;;;;;;;44.00;26.05;;;6.60;99.90;;;;;;5021697;28;20113;-66
2021/03/22 08:07:27;;;;;;;39.38;24.42;;;6.70;99.90;;;;;;5012713;28;20045;-66
2021/03/22 08:10:03;;;;;;;38.03;26.05;;;6.60;99.90;;;;;;5017022;28;20025;-66
2021/03/22 08:12:50;;;;;;;40.60;26.73;;;6.70;99.90;;;;;;5021705;28;20033;-66
2021/03/22 08:15:37;;;;;;;39.42;25.98;;;6.80;99.90;;;;;;5013408;28;20069;-67
2021/03/22 08:18:21;;;;;;;40.65;26.60;;;6.90;99.90;;;;;;5021551;28;20033;-66
2021/03/22 08:20:59;;;;;;;41.03;27.23;;;7.00;99.90;;;;;;5010006;28;20512;-66
2021/03/22 08:23:33;;;;;;;38.90;26.77;;;6.90;99.90;;;;;;5022444;28;20462;-66
2021/03/22 08:26:05;;;;;;;39.47;26.10;;;7.10;99.90;;;;;;5010944;28;20507;-66
2021/03/22 08:28:45;;;;;;;41.63;27.85;;;7.30;99.90;;;;;;5019338;28;20059;-66
2021/03/22 08:31:13;;;;;;;38.15;27.08;;;7.30;99.90;;;;;;5029452;28;20021;-67
2021/03/22 08:33:42;;;;;;;43.28;27.35;;;7.20;99.90;;;;;;5021811;28;20100;-66
2021/03/22 08:36:22;;;;;;;35.15;24.50;;;7.40;99.90;;;;;;5010101;28;20045;-65
2021/03/22 08:38:53;;;;;;;36.67;25.02;;;7.50;99.90;;;;;;5020517;28;20038;-66
2021/03/22 08:41:53;;;;;;;38.25;26.02;;;7.60;99.90;;;;;;5028842;28;20026;-66
2021/03/22 08:44:41;;;;;;;35.05;25.40;;;7.80;99.90;;;;;;5019500;28;20044;-66
2021/03/22 08:47:19;;;;;;;39.08;26.83;;;8.00;99.90;;;;;;5013485;28;20519;-66
2021/03/22 08:49:57;;;;;;;37.58;25.25;;;8.00;99.90;;;;;;5017529;28;20029;-66
2021/03/22 08:52:31;;;;;;;35.22;25.63;;;8.20;99.90;;;;;;5014564;28;20376;-66
2021/03/22 08:55:08;;;;;;;38.17;26.17;;;8.10;99.90;;;;;;5015745;28;20041;-66
2021/03/22 08:58:04;;;;;;;34.28;25.50;;;8.30;99.90;;;;;;5016929;28;20033;-66
2021/03/22 09:00:45;;;;;;;33.78;23.58;;;8.60;99.90;;;;;;5010811;28;20022;-66
2021/03/22 09:03:13;;;;;;;31.67;23.92;;;8.50;99.90;;;;;;5020951;28;20383;-67
2021/03/22 09:05:41;;;;;;;34.13;24.80;;;8.50;99.90;;;;;;5009263;28;20085;-66
2021/03/22 09:08:23;;;;;;;35.05;24.38;;;8.50;99.90;;;;;;5021151;28;20029;-66
2021/03/22 09:10:51;;;;;;;34.70;24.48;;;8.50;99.90;;;;;;5026158;28;20121;-66
2021/03/22 09:13:32;;;;;;;36.30;24.42;;;8.80;99.90;;;;;;5025928;28;20033;-65
2021/03/22 09:16:05;;;;;;;35.97;24.48;;;8.70;99.90;;;;;;5027065;28;20017;-67
2021/03/22 09:18:32;;;;;;;32.97;23.35;;;8.70;99.90;;;;;;5027359;28;20021;-66
2021/03/22 09:21:05;;;;;;;34.67;24.45;;;8.80;99.90;;;;;;5028561;28;20631;-67
2021/03/22 09:23:31;;;;;;;31.13;23.52;;;8.70;99.90;;;;;;5027118;28;20021;-65
2021/03/22 09:26:00;;;;;;;38.10;24.88;;;8.90;99.90;;;;;;5029031;28;20075;-65
2021/03/22 09:28:26;;;;;;;32.85;23.95;;;8.80;99.90;;;;;;5027423;28;20018;-65
2021/03/22 09:31:03;;;;;;;30.40;22.58;;;9.20;99.90;;;;;;5028705;28;20033;-66
2021/03/22 09:33:51;;;;;;;26.98;21.65;;;9.30;99.90;;;;;;5027886;28;20498;-66
2021/03/22 09:36:25;;;;;;;30.17;21.75;;;9.30;99.90;;;;;;5025534;28;20079;-66
2021/03/22 09:38:51;;;;;;;33.88;22.63;;;9.70;99.90;;;;;;5022859;28;20080;-65
2021/03/22 09:41:16;;;;;;;32.90;23.17;;;9.40;99.90;;;;;;5014195;28;20042;-66
2021/03/22 09:43:46;;;;;;;31.77;22.98;;;9.30;99.90;;;;;;5023054;28;20699;-66
2021/03/22 09:46:26;;;;;;;31.88;22.67;;;9.40;99.90;;;;;;5026727;28;20044;-65
2021/03/22 09:49:14;;;;;;;29.50;22.13;;;9.60;99.90;;;;;;5019816;28;20030;-67
2021/03/22 09:51:48;;;;;;;30.92;22.75;;;9.40;99.90;;;;;;5026169;28;20041;-65
2021/03/22 09:54:34;;;;;;;26.63;21.30;;;9.70;99.90;;;;;;5018528;28;20390;-65
2021/03/22 09:57:22;;;;;;;30.73;23.00;;;9.40;99.90;;;;;;5017435;28;20030;-63
2021/03/22 10:00:09;;;;;;;33.88;22.35;;;9.90;99.90;;;;;;5026077;28;20375;-65
2021/03/22 10:03:18;;;;;;;27.98;20.52;;;10.10;99.90;;;;;;5025208;28;20030;-67
2021/03/22 10:05:46;;;;;;;31.63;21.33;;;10.20;99.90;;;;;;5025508;28;20112;-65
2021/03/22 10:08:12;;;;;;;29.73;21.00;;;9.90;99.90;;;;;;5022870;28;20108;-65
2021/03/22 10:10:54;;;;;;;29.75;20.92;;;9.90;99.90;;;;;;5009765;28;20108;-65
2021/03/22 10:13:30;;;;;;;25.92;20.88;;;10.20;99.90;;;;;;5020883;28;20025;-61
2021/03/22 10:15:59;;;;;;;;;;;10.30;99.90;;;;;;5017802;28;20524;-60
2021/03/22 10:18:37;;;;;;;25.77;19.77;;;10.50;99.90;;;;;;5030334;28;19939;-61
2021/03/22 10:21:09;;;;;;;26.30;20.45;;;10.40;99.90;;;;;;5032636;28;20029;-61
2021/03/22 10:23:50;;;;;;;25.55;19.98;;;10.10;99.90;;;;;;5021694;28;20033;-61
2021/03/22 10:26:43;;;;;;;25.15;18.35;;;10.40;99.90;;;;;;5031578;28;20060;-62
2021/03/22 10:29:33;;;;;;;22.98;17.77;;;10.40;99.90;;;;;;5022177;28;20184;-61
2021/03/22 10:32:13;;;;;;;28.30;18.60;;;10.50;99.90;;;;;;5015708;28;20037;-63
2021/03/22 10:35:08;;;;;;;23.52;18.42;;;10.40;99.90;;;;;;5025016;28;20498;-61
2021/03/22 10:37:41;;;;;;;23.40;19.55;;;10.50;99.90;;;;;;5026137;28;20136;-61
2021/03/22 10:40:28;;;;;;;26.27;19.48;;;10.70;99.90;;;;;;5032491;28;20056;-62
2021/03/22 10:42:56;;;;;;;26.65;19.73;;;10.80;99.90;;;;;;5026774;28;20092;-61
2021/03/22 10:45:24;;;;;;;23.95;19.52;;;10.80;99.90;;;;;;5014856;28;20042;-62
2021/03/22 10:47:52;;;;;;;22.50;17.75;;;10.90;99.90;;;;;;5029751;28;20514;-62
2021/03/22 10:50:57;;;;;;;21.00;17.92;;;11.20;99.90;;;;;;5031913;28;20508;-62
2021/03/22 10:53:23;;;;;;;21.80;18.48;;;11.20;99.90;;;;;;5024337;28;20480;-61
2021/03/22 10:55:49;;;;;;;24.48;17.85;;;11.10;99.90;;;;;;5034661;28;20104;-61
2021/03/22 10:58:26;;;;;;;21.05;16.80;;;11.30;99.90;;;;;;5040971;28;20025;-61
2021/03/22 11:01:20;;;;;;;21.45;15.57;;;11.10;99.90;;;;;;5031098;28;20021;-61
2021/03/22 11:03:48;;;;;;;17.70;15.23;;;10.90;99.90;;;;;;5030197;28;20046;-62
2021/03/22 11:06:27;;;;;;;18.30;15.73;;;11.20;99.90;;;;;;5029920;28;20133;-62
2021/03/22 11:08:57;;;;;;;18.98;15.93;;;11.20;99.90;;;;;;5029345;28;20030;-62
2021/03/22 11:11:23;;;;;;;20.42;15.77;;;10.90;99.90;;;;;;5029810;28;20516;-61
2021/03/22 11:13:51;;;;;;;20.98;16.85;;;11.10;99.90;;;;;;5022975;28;20061;-62
2021/03/22 11:16:26;;;;;;;17.92;14.90;;;11.50;99.90;;;;;;5012554;28;20598;-61
2021/03/22 11:18:53;;;;;;;17.80;15.05;;;11.70;99.90;;;;;;5022143;28;20025;-62
2021/03/22 11:21:24;;;;;;;16.92;15.02;;;11.90;99.90;;;;;;5029816;28;20076;-61
2021/03/22 11:23:53;;;;;;;19.45;16.48;;;11.70;99.90;;;;;;5021771;28;20041;-62
2021/03/22 11:26:26;;;;;;;19.02;15.90;;;11.90;99.90;;;;;;5029878;28;20588;-61
2021/03/22 11:29:11;;;;;;;18.10;15.85;;;11.50;99.90;;;;;;5021905;28;20022;-61
2021/03/22 11:31:39;;;;;;;18.15;14.45;;;11.80;99.90;;;;;;5029949;28;20104;-61
2021/03/22 11:34:15;;;;;;;17.10;14.05;;;11.60;99.90;;;;;;5020798;28;20499;-61
2021/03/22 11:36:43;;;;;;;15.77;12.75;;;11.70;99.90;;;;;;5013807;28;20029;-61
2021/03/22 11:39:23;;;;;;;13.90;12.25;;;11.80;99.90;;;;;;5020992;28;20088;-61
2021/03/22 11:41:54;;;;;;;15.20;12.30;;;12.30;99.90;;;;;;5014365;28;20080;-63
2021/03/22 11:44:36;;;;;;;13.27;11.88;;;12.40;99.90;;;;;;5020705;28;20037;-61
2021/03/22 11:47:34;;;;;;;15.70;12.23;;;12.10;99.90;;;;;;5014384;28;20032;-61
2021/03/22 11:50:00;;;;;;;13.43;11.93;;;12.10;99.90;;;;;;5026815;28;20120;-61
2021/03/22 11:52:28;;;;;;;12.57;10.90;;;12.80;99.90;;;;;;5024430;28;20029;-62
2021/03/22 11:54:57;;;;;;;13.18;11.43;;;12.40;99.90;;;;;;5017971;28;20168;-61
2021/03/22 11:57:30;;;;;;;11.95;10.85;;;12.30;99.90;;;;;;5016479;28;20135;-61
2021/03/22 12:00:21;;;;;;;12.15;10.93;;;12.70;99.90;;;;;;5025936;28;20026;-62
2021/03/22 12:02:52;;;;;;;12.57;11.27;;;13.30;99.90;;;;;;5025387;28;20049;-61
2021/03/22 12:05:32;;;;;;;12.60;10.68;;;13.00;99.90;;;;;;5014050;28;20065;-61
2021/03/22 12:07:59;;;;;;;13.25;11.18;;;12.60;99.90;;;;;;5020694;28;20025;-62
2021/03/22 12:10:27;;;;;;;13.95;11.00;;;12.60;99.90;;;;;;5013321;28;20026;-61
2021/03/22 12:12:55;;;;;;;13.40;10.88;;;13.30;99.90;;;;;;5019839;28;20547;-61
2021/03/22 12:15:22;;;;;;;11.80;10.60;;;14.10;99.90;;;;;;5013495;28;20120;-62
2021/03/22 12:17:59;;;;;;;11.32;10.18;;;13.90;99.90;;;;;;5019194;28;20049;-61
2021/03/22 12:20:30;;;;;;;12.02;9.70;;;13.60;99.90;;;;;;5012373;28;20030;-62
2021/03/22 12:22:57;;;;;;;11.90;10.90;;;13.10;99.90;;;;;;5022561;28;20107;-61
2021/03/22 12:25:26;;;;;;;13.25;11.88;;;13.60;99.90;;;;;;5013217;28;20478;-61
2021/03/22 12:27:52;;;;;;;13.52;10.98;;;14.30;99.90;;;;;;5019183;28;20025;-61
2021/03/22 12:30:19;;;;;;;11.15;10.13;;;13.90;99.90;;;;;;5027051;28;20420;-61
2021/03/22 12:32:45;;;;;;;10.07;9.18;;;13.80;99.90;;;;;;5028186;28;20033;-61
2021/03/22 12:35:36;;;;;;;11.07;9.52;;;14.50;99.90;;;;;;5029586;28;20025;-62
2021/03/22 12:38:03;;;;;;;8.38;7.75;;;14.30;99.90;;;;;;5026465;28;20056;-62
2021/03/22 12:40:29;;;;;;;11.45;10.38;;;14.40;99.90;;;;;;5030582;28;20033;-61
2021/03/22 12:42:55;;;;;;;11.48;10.35;;;14.00;99.90;;;;;;5027791;28;20399;-62
2021/03/22 12:45:29;;;;;;;11.63;10.38;;;13.60;99.90;;;;;;5030023;28;20029;-61
2021/03/22 12:47:55;;;;;;;11.30;10.23;;;14.10;99.90;;;;;;5024344;28;20025;-61
2021/03/22 12:50:29;;;;;;;11.60;10.60;;;14.50;99.90;;;;;;5013190;28;20036;-61
2021/03/22 12:52:56;;;;;;;12.90;11.80;;;13.80;99.90;;;;;;5026556;28;20021;-61
2021/03/22 12:55:23;;;;;;;12.98;10.98;;;13.80;99.90;;;;;;5030191;28;20104;-60
2021/03/22 12:57:50;;;;;;;11.85;10.07;;;14.50;99.90;;;;;;5027961;28;20041;-61
2021/03/22 13:00:18;;;;;;;10.38;9.48;;;14.70;99.90;;;;;;5029214;28;20101;-62
2021/03/22 13:02:46;;;;;;;10.68;9.57;;;14.50;99.90;;;;;;5027477;28;20137;-62
2021/03/22 13:05:26;;;;;;;10.93;9.88;;;15.10;99.90;;;;;;5028844;28;20046;-61
2021/03/22 13:07:53;;;;;;;13.63;11.05;;;15.70;99.90;;;;;;5024982;28;20034;-61